sensor_id;sensor_type;location;lat;lon;timestamp;P1;durP1;ratioP1;P2;durP2;ratioP2
42118;SDS011;27783;42.782;23.274;2023-08-07T00:00:11;3.63;;;1.63;;
42118;SDS011;27783;42.782;23.274;2023-08-07T00:02:36;2.00;;;1.35;;
42118;SDS011;27783;42.782;23.274;2023-08-07T00:05:02;2.10;;;1.05;;
42118;SDS011;27783;42.782;23.274;2023-08-07T00:07:27;3.05;;;1.63;;
42118;SDS011;27783;42.782;23.274;2023-08-07T00:09:53;1.55;;;1.45;;
42118;SDS011;27783;42.782;23.274;2023-08-07T00:12:18;1.75;;;1.65;;
42118;SDS011;27783;42.782;23.274;2023-08-07T00:14:43;2.30;;;1.73;;
42118;SDS011;27783;42.782;23.274;2023-08-07T00:17:09;2.38;;;1.77;;
42118;SDS011;27783;42.782;23.274;2023-08-07T00:19:34;2.50;;;1.27;;
42118;SDS011;27783;42.782;23.274;2023-08-07T00:21:59;2.45;;;1.85;;
42118;SDS011;27783;42.782;23.274;2023-08-07T00:24:25;1.95;;;1.73;;
42118;SDS011;27783;42.782;23.274;2023-08-07T00:26:50;2.30;;;2.10;;
42118;SDS011;27783;42.782;23.274;2023-08-07T00:29:16;1.98;;;1.73;;
42118;SDS011;27783;42.782;23.274;2023-08-07T00:31:41;2.58;;;2.38;;
42118;SDS011;27783;42.782;23.274;2023-08-07T00:34:06;6.07;;;2.47;;
42118;SDS011;27783;42.782;23.274;2023-08-07T00:36:32;4.90;;;1.77;;
42118;SDS011;27783;42.782;23.274;2023-08-07T00:39:00;2.80;;;2.50;;
42118;SDS011;27783;42.782;23.274;2023-08-07T00:41:25;3.53;;;2.35;;
42118;SDS011;27783;42.782;23.274;2023-08-07T00:43:51;2.47;;;2.28;;
42118;SDS011;27783;42.782;23.274;2023-08-07T00:46:16;2.35;;;2.15;;
42118;SDS011;27783;42.782;23.274;2023-08-07T00:48:42;3.92;;;2.15;;
42118;SDS011;27783;42.782;23.274;2023-08-07T00:51:08;3.55;;;3.05;;
42118;SDS011;27783;42.782;23.274;2023-08-07T00:53:34;2.28;;;1.98;;
42118;SDS011;27783;42.782;23.274;2023-08-07T00:56:02;4.40;;;2.58;;
42118;SDS011;27783;42.782;23.274;2023-08-07T00:58:28;2.50;;;2.30;;
42118;SDS011;27783;42.782;23.274;2023-08-07T01:00:54;4.35;;;2.13;;
42118;SDS011;27783;42.782;23.274;2023-08-07T01:03:20;2.50;;;2.30;;
42118;SDS011;27783;42.782;23.274;2023-08-07T01:05:45;4.03;;;2.58;;
42118;SDS011;27783;42.782;23.274;2023-08-07T01:08:11;5.43;;;3.13;;
42118;SDS011;27783;42.782;23.274;2023-08-07T01:13:34;3.80;;;3.55;;
42118;SDS011;27783;42.782;23.274;2023-08-07T01:16:13;3.53;;;3.25;;
42118;SDS011;27783;42.782;23.274;2023-08-07T01:18:46;3.75;;;3.45;;
42118;SDS011;27783;42.782;23.274;2023-08-07T01:21:18;7.80;;;3.75;;
42118;SDS011;27783;42.782;23.274;2023-08-07T01:23:45;6.82;;;4.82;;
42118;SDS011;27783;42.782;23.274;2023-08-07T01:26:14;6.72;;;6.13;;
42118;SDS011;27783;42.782;23.274;2023-08-07T01:28:46;5.88;;;5.38;;
42118;SDS011;27783;42.782;23.274;2023-08-07T01:31:18;5.45;;;5.05;;
42118;SDS011;27783;42.782;23.274;2023-08-07T01:36:16;4.13;;;3.83;;
42118;SDS011;27783;42.782;23.274;2023-08-07T01:38:41;4.15;;;3.85;;
42118;SDS011;27783;42.782;23.274;2023-08-07T01:41:07;7.40;;;4.32;;
42118;SDS011;27783;42.782;23.274;2023-08-07T01:43:33;3.80;;;3.42;;
42118;SDS011;27783;42.782;23.274;2023-08-07T01:45:59;4.97;;;4.57;;
42118;SDS011;27783;42.782;23.274;2023-08-07T01:48:25;4.32;;;3.92;;
42118;SDS011;27783;42.782;23.274;2023-08-07T01:50:50;5.45;;;5.10;;
42118;SDS011;27783;42.782;23.274;2023-08-07T01:53:15;6.25;;;5.85;;
42118;SDS011;27783;42.782;23.274;2023-08-07T01:55:41;5.82;;;5.28;;
42118;SDS011;27783;42.782;23.274;2023-08-07T01:58:06;38.35;;;7.85;;
42118;SDS011;27783;42.782;23.274;2023-08-07T02:00:32;5.93;;;5.15;;
42118;SDS011;27783;42.782;23.274;2023-08-07T02:02:57;6.35;;;5.75;;
42118;SDS011;27783;42.782;23.274;2023-08-07T02:05:22;6.93;;;5.47;;
42118;SDS011;27783;42.782;23.274;2023-08-07T02:07:48;6.35;;;5.88;;
42118;SDS011;27783;42.782;23.274;2023-08-07T02:10:13;5.50;;;5.10;;
42118;SDS011;27783;42.782;23.274;2023-08-07T02:12:38;6.15;;;5.60;;
42118;SDS011;27783;42.782;23.274;2023-08-07T02:15:04;6.95;;;6.40;;
42118;SDS011;27783;42.782;23.274;2023-08-07T02:17:30;7.47;;;6.97;;
42118;SDS011;27783;42.782;23.274;2023-08-07T02:19:56;6.18;;;5.68;;
42118;SDS011;27783;42.782;23.274;2023-08-07T02:22:21;6.78;;;6.13;;
42118;SDS011;27783;42.782;23.274;2023-08-07T02:24:47;7.00;;;6.30;;
42118;SDS011;27783;42.782;23.274;2023-08-07T02:27:12;6.85;;;6.35;;
42118;SDS011;27783;42.782;23.274;2023-08-07T02:29:38;7.40;;;6.70;;
42118;SDS011;27783;42.782;23.274;2023-08-07T02:32:03;6.35;;;5.85;;
42118;SDS011;27783;42.782;23.274;2023-08-07T02:34:30;6.43;;;5.90;;
42118;SDS011;27783;42.782;23.274;2023-08-07T02:36:55;6.28;;;5.75;;
42118;SDS011;27783;42.782;23.274;2023-08-07T02:39:24;7.22;;;6.50;;
42118;SDS011;27783;42.782;23.274;2023-08-07T02:41:50;6.65;;;6.07;;
42118;SDS011;27783;42.782;23.274;2023-08-07T02:44:15;6.65;;;5.80;;
42118;SDS011;27783;42.782;23.274;2023-08-07T02:46:42;6.23;;;5.70;;
42118;SDS011;27783;42.782;23.274;2023-08-07T02:49:07;7.10;;;6.60;;
42118;SDS011;27783;42.782;23.274;2023-08-07T02:51:33;6.90;;;6.28;;
42118;SDS011;27783;42.782;23.274;2023-08-07T02:53:58;7.47;;;6.22;;
42118;SDS011;27783;42.782;23.274;2023-08-07T02:56:23;7.18;;;6.47;;
42118;SDS011;27783;42.782;23.274;2023-08-07T02:58:49;6.40;;;5.80;;
42118;SDS011;27783;42.782;23.274;2023-08-07T03:01:14;9.90;;;7.15;;
42118;SDS011;27783;42.782;23.274;2023-08-07T03:03:39;7.78;;;7.00;;
42118;SDS011;27783;42.782;23.274;2023-08-07T03:06:05;9.27;;;7.30;;
42118;SDS011;27783;42.782;23.274;2023-08-07T03:08:30;7.63;;;6.85;;
42118;SDS011;27783;42.782;23.274;2023-08-07T03:10:57;7.18;;;6.45;;
42118;SDS011;27783;42.782;23.274;2023-08-07T03:13:24;8.80;;;7.32;;
42118;SDS011;27783;42.782;23.274;2023-08-07T03:15:50;9.23;;;7.57;;
42118;SDS011;27783;42.782;23.274;2023-08-07T03:18:16;7.45;;;6.78;;
42118;SDS011;27783;42.782;23.274;2023-08-07T03:20:41;8.63;;;6.82;;
42118;SDS011;27783;42.782;23.274;2023-08-07T03:23:08;7.60;;;6.97;;
42118;SDS011;27783;42.782;23.274;2023-08-07T03:25:34;8.10;;;7.20;;
42118;SDS011;27783;42.782;23.274;2023-08-07T03:27:59;7.80;;;7.10;;
42118;SDS011;27783;42.782;23.274;2023-08-07T03:30:25;7.93;;;7.13;;
42118;SDS011;27783;42.782;23.274;2023-08-07T03:32:50;11.68;;;8.00;;
42118;SDS011;27783;42.782;23.274;2023-08-07T03:35:15;11.75;;;9.93;;
42118;SDS011;27783;42.782;23.274;2023-08-07T03:37:41;13.02;;;8.00;;
42118;SDS011;27783;42.782;23.274;2023-08-07T03:40:06;8.88;;;8.10;;
42118;SDS011;27783;42.782;23.274;2023-08-07T03:42:32;9.35;;;8.35;;
42118;SDS011;27783;42.782;23.274;2023-08-07T03:44:57;9.10;;;7.25;;
42118;SDS011;27783;42.782;23.274;2023-08-07T03:47:23;11.23;;;7.13;;
42118;SDS011;27783;42.782;23.274;2023-08-07T03:49:48;11.40;;;6.97;;
42118;SDS011;27783;42.782;23.274;2023-08-07T03:52:14;9.65;;;8.85;;
42118;SDS011;27783;42.782;23.274;2023-08-07T03:54:40;9.40;;;7.95;;
42118;SDS011;27783;42.782;23.274;2023-08-07T03:57:05;10.27;;;8.95;;
42118;SDS011;27783;42.782;23.274;2023-08-07T03:59:30;21.98;;;19.75;;
42118;SDS011;27783;42.782;23.274;2023-08-07T04:01:56;14.32;;;11.73;;
42118;SDS011;27783;42.782;23.274;2023-08-07T04:04:21;42.00;;;30.23;;
42118;SDS011;27783;42.782;23.274;2023-08-07T04:06:47;9.35;;;8.55;;
42118;SDS011;27783;42.782;23.274;2023-08-07T04:09:12;10.98;;;9.98;;
42118;SDS011;27783;42.782;23.274;2023-08-07T04:11:38;8.13;;;7.22;;
42118;SDS011;27783;42.782;23.274;2023-08-07T04:14:05;10.63;;;8.40;;
42118;SDS011;27783;42.782;23.274;2023-08-07T04:16:30;9.23;;;8.55;;
42118;SDS011;27783;42.782;23.274;2023-08-07T04:18:56;10.60;;;7.90;;
42118;SDS011;27783;42.782;23.274;2023-08-07T04:21:21;9.70;;;8.18;;
42118;SDS011;27783;42.782;23.274;2023-08-07T04:23:47;8.02;;;7.32;;
42118;SDS011;27783;42.782;23.274;2023-08-07T04:26:12;11.48;;;9.45;;
42118;SDS011;27783;42.782;23.274;2023-08-07T04:28:39;9.65;;;8.85;;
42118;SDS011;27783;42.782;23.274;2023-08-07T04:31:04;10.45;;;7.68;;
42118;SDS011;27783;42.782;23.274;2023-08-07T04:33:30;9.18;;;8.45;;
42118;SDS011;27783;42.782;23.274;2023-08-07T04:35:55;8.25;;;7.55;;
42118;SDS011;27783;42.782;23.274;2023-08-07T04:38:21;7.65;;;7.05;;
42118;SDS011;27783;42.782;23.274;2023-08-07T04:40:47;7.93;;;7.32;;
42118;SDS011;27783;42.782;23.274;2023-08-07T04:43:13;7.93;;;6.90;;
42118;SDS011;27783;42.782;23.274;2023-08-07T04:45:40;10.25;;;6.43;;
42118;SDS011;27783;42.782;23.274;2023-08-07T04:48:09;7.15;;;6.65;;
42118;SDS011;27783;42.782;23.274;2023-08-07T04:50:34;5.93;;;5.38;;
42118;SDS011;27783;42.782;23.274;2023-08-07T04:52:59;5.50;;;5.10;;
42118;SDS011;27783;42.782;23.274;2023-08-07T04:55:25;5.65;;;4.88;;
42118;SDS011;27783;42.782;23.274;2023-08-07T04:57:50;9.82;;;6.22;;
42118;SDS011;27783;42.782;23.274;2023-08-07T05:00:19;6.35;;;5.68;;
42118;SDS011;27783;42.782;23.274;2023-08-07T05:02:45;8.63;;;5.28;;
42118;SDS011;27783;42.782;23.274;2023-08-07T05:05:10;6.13;;;5.50;;
42118;SDS011;27783;42.782;23.274;2023-08-07T05:07:36;7.60;;;5.65;;
42118;SDS011;27783;42.782;23.274;2023-08-07T05:10:02;6.18;;;4.72;;
42118;SDS011;27783;42.782;23.274;2023-08-07T05:12:28;7.85;;;5.50;;
42118;SDS011;27783;42.782;23.274;2023-08-07T05:14:54;4.78;;;4.47;;
42118;SDS011;27783;42.782;23.274;2023-08-07T05:17:19;4.85;;;4.47;;
42118;SDS011;27783;42.782;23.274;2023-08-07T05:19:44;4.28;;;3.97;;
42118;SDS011;27783;42.782;23.274;2023-08-07T05:22:10;5.88;;;4.43;;
42118;SDS011;27783;42.782;23.274;2023-08-07T05:24:35;5.10;;;4.60;;
42118;SDS011;27783;42.782;23.274;2023-08-07T05:27:05;3.60;;;3.40;;
42118;SDS011;27783;42.782;23.274;2023-08-07T05:29:33;3.78;;;3.33;;
42118;SDS011;27783;42.782;23.274;2023-08-07T05:31:58;6.75;;;4.07;;
42118;SDS011;27783;42.782;23.274;2023-08-07T05:34:24;3.30;;;3.10;;
42118;SDS011;27783;42.782;23.274;2023-08-07T05:36:49;3.72;;;3.42;;
42118;SDS011;27783;42.782;23.274;2023-08-07T05:39:14;3.58;;;3.03;;
42118;SDS011;27783;42.782;23.274;2023-08-07T05:41:40;3.40;;;3.10;;
42118;SDS011;27783;42.782;23.274;2023-08-07T05:44:05;5.75;;;3.58;;
42118;SDS011;27783;42.782;23.274;2023-08-07T05:46:30;3.15;;;2.95;;
42118;SDS011;27783;42.782;23.274;2023-08-07T05:48:56;3.17;;;2.97;;
42118;SDS011;27783;42.782;23.274;2023-08-07T05:51:21;3.50;;;2.85;;
42118;SDS011;27783;42.782;23.274;2023-08-07T05:53:47;3.25;;;3.03;;
42118;SDS011;27783;42.782;23.274;2023-08-07T05:56:12;2.83;;;2.63;;
42118;SDS011;27783;42.782;23.274;2023-08-07T05:58:37;2.60;;;2.40;;
42118;SDS011;27783;42.782;23.274;2023-08-07T06:01:03;5.97;;;2.88;;
42118;SDS011;27783;42.782;23.274;2023-08-07T06:03:28;4.95;;;3.00;;
42118;SDS011;27783;42.782;23.274;2023-08-07T06:05:54;3.53;;;2.40;;
42118;SDS011;27783;42.782;23.274;2023-08-07T06:08:19;4.40;;;2.05;;
42118;SDS011;27783;42.782;23.274;2023-08-07T06:10:44;4.32;;;2.15;;
42118;SDS011;27783;42.782;23.274;2023-08-07T06:13:10;1.98;;;1.88;;
42118;SDS011;27783;42.782;23.274;2023-08-07T06:15:35;3.40;;;1.90;;
42118;SDS011;27783;42.782;23.274;2023-08-07T06:18:01;2.47;;;2.20;;
42118;SDS011;27783;42.782;23.274;2023-08-07T06:20:26;2.58;;;2.38;;
42118;SDS011;27783;42.782;23.274;2023-08-07T06:22:52;8.00;;;2.58;;
42118;SDS011;27783;42.782;23.274;2023-08-07T06:25:17;7.28;;;2.38;;
42118;SDS011;27783;42.782;23.274;2023-08-07T06:27:44;6.25;;;2.50;;
42118;SDS011;27783;42.782;23.274;2023-08-07T06:30:10;4.15;;;1.98;;
42118;SDS011;27783;42.782;23.274;2023-08-07T06:32:36;3.38;;;1.88;;
42118;SDS011;27783;42.782;23.274;2023-08-07T06:35:02;3.17;;;1.98;;
42118;SDS011;27783;42.782;23.274;2023-08-07T06:37:28;4.13;;;1.70;;
42118;SDS011;27783;42.782;23.274;2023-08-07T06:39:53;1.58;;;1.48;;
42118;SDS011;27783;42.782;23.274;2023-08-07T06:42:18;2.00;;;1.52;;
42118;SDS011;27783;42.782;23.274;2023-08-07T06:44:44;2.25;;;1.80;;
42118;SDS011;27783;42.782;23.274;2023-08-07T06:47:10;1.52;;;1.42;;
42118;SDS011;27783;42.782;23.274;2023-08-07T06:49:36;4.05;;;1.88;;
42118;SDS011;27783;42.782;23.274;2023-08-07T06:52:01;2.17;;;1.98;;
42118;SDS011;27783;42.782;23.274;2023-08-07T06:54:27;3.35;;;3.05;;
42118;SDS011;27783;42.782;23.274;2023-08-07T06:56:52;1.70;;;1.60;;
42118;SDS011;27783;42.782;23.274;2023-08-07T06:59:18;4.55;;;1.65;;
42118;SDS011;27783;42.782;23.274;2023-08-07T07:01:43;1.67;;;1.40;;
42118;SDS011;27783;42.782;23.274;2023-08-07T07:04:09;4.30;;;1.42;;
42118;SDS011;27783;42.782;23.274;2023-08-07T07:06:34;2.13;;;1.40;;
42118;SDS011;27783;42.782;23.274;2023-08-07T07:08:59;2.30;;;1.40;;
42118;SDS011;27783;42.782;23.274;2023-08-07T07:11:25;1.42;;;1.33;;
42118;SDS011;27783;42.782;23.274;2023-08-07T07:13:51;2.15;;;1.13;;
42118;SDS011;27783;42.782;23.274;2023-08-07T07:16:20;5.40;;;1.35;;
42118;SDS011;27783;42.782;23.274;2023-08-07T07:18:49;2.28;;;1.20;;
42118;SDS011;27783;42.782;23.274;2023-08-07T07:21:16;1.63;;;1.23;;
42118;SDS011;27783;42.782;23.274;2023-08-07T07:23:41;2.58;;;1.25;;
42118;SDS011;27783;42.782;23.274;2023-08-07T07:26:07;1.33;;;1.23;;
42118;SDS011;27783;42.782;23.274;2023-08-07T07:28:32;3.50;;;1.20;;
42118;SDS011;27783;42.782;23.274;2023-08-07T07:30:57;2.15;;;1.25;;
42118;SDS011;27783;42.782;23.274;2023-08-07T07:33:23;4.15;;;1.30;;
42118;SDS011;27783;42.782;23.274;2023-08-07T07:35:48;1.33;;;1.20;;
42118;SDS011;27783;42.782;23.274;2023-08-07T07:38:14;1.55;;;1.30;;
42118;SDS011;27783;42.782;23.274;2023-08-07T07:40:40;2.65;;;1.30;;
42118;SDS011;27783;42.782;23.274;2023-08-07T07:43:05;2.28;;;1.15;;
42118;SDS011;27783;42.782;23.274;2023-08-07T07:45:31;1.05;;;1.00;;
42118;SDS011;27783;42.782;23.274;2023-08-07T07:47:58;0.73;;;0.73;;
42118;SDS011;27783;42.782;23.274;2023-08-07T07:50:24;4.32;;;1.50;;
42118;SDS011;27783;42.782;23.274;2023-08-07T07:52:49;2.28;;;1.02;;
42118;SDS011;27783;42.782;23.274;2023-08-07T07:55:15;1.60;;;1.00;;
42118;SDS011;27783;42.782;23.274;2023-08-07T07:57:40;2.35;;;1.08;;
42118;SDS011;27783;42.782;23.274;2023-08-07T08:00:06;1.83;;;0.88;;
42118;SDS011;27783;42.782;23.274;2023-08-07T08:02:35;0.85;;;0.82;;
42118;SDS011;27783;42.782;23.274;2023-08-07T08:05:01;5.13;;;1.48;;
42118;SDS011;27783;42.782;23.274;2023-08-07T08:07:27;2.10;;;1.27;;
42118;SDS011;27783;42.782;23.274;2023-08-07T08:09:52;6.90;;;1.60;;
42118;SDS011;27783;42.782;23.274;2023-08-07T08:12:18;0.82;;;0.63;;
42118;SDS011;27783;42.782;23.274;2023-08-07T08:14:43;0.70;;;0.70;;
42118;SDS011;27783;42.782;23.274;2023-08-07T08:17:08;1.63;;;0.77;;
42118;SDS011;27783;42.782;23.274;2023-08-07T08:19:34;2.80;;;0.85;;
42118;SDS011;27783;42.782;23.274;2023-08-07T08:22:00;0.90;;;0.52;;
42118;SDS011;27783;42.782;23.274;2023-08-07T08:24:25;2.97;;;0.82;;
42118;SDS011;27783;42.782;23.274;2023-08-07T08:26:50;1.25;;;0.60;;
42118;SDS011;27783;42.782;23.274;2023-08-07T08:29:16;0.85;;;0.68;;
42118;SDS011;27783;42.782;23.274;2023-08-07T08:31:41;1.70;;;0.77;;
42118;SDS011;27783;42.782;23.274;2023-08-07T08:34:08;1.70;;;0.60;;
42118;SDS011;27783;42.782;23.274;2023-08-07T08:36:33;0.43;;;0.43;;
42118;SDS011;27783;42.782;23.274;2023-08-07T08:38:58;0.35;;;0.35;;
42118;SDS011;27783;42.782;23.274;2023-08-07T08:41:24;0.75;;;0.60;;
42118;SDS011;27783;42.782;23.274;2023-08-07T08:43:51;2.78;;;0.60;;
42118;SDS011;27783;42.782;23.274;2023-08-07T08:46:20;0.95;;;0.50;;
42118;SDS011;27783;42.782;23.274;2023-08-07T08:48:50;0.98;;;0.68;;
42118;SDS011;27783;42.782;23.274;2023-08-07T08:51:16;0.60;;;0.60;;
42118;SDS011;27783;42.782;23.274;2023-08-07T08:53:43;1.02;;;0.30;;
42118;SDS011;27783;42.782;23.274;2023-08-07T08:56:10;0.43;;;0.40;;
42118;SDS011;27783;42.782;23.274;2023-08-07T08:58:37;0.30;;;0.30;;
42118;SDS011;27783;42.782;23.274;2023-08-07T09:01:03;1.42;;;0.55;;
42118;SDS011;27783;42.782;23.274;2023-08-07T09:03:29;2.55;;;0.50;;
42118;SDS011;27783;42.782;23.274;2023-08-07T09:05:57;0.25;;;0.20;;
42118;SDS011;27783;42.782;23.274;2023-08-07T09:10:50;0.40;;;0.40;;
42118;SDS011;27783;42.782;23.274;2023-08-07T09:13:16;1.60;;;1.20;;
42118;SDS011;27783;42.782;23.274;2023-08-07T09:15:45;0.80;;;0.55;;
42118;SDS011;27783;42.782;23.274;2023-08-07T09:18:15;1.65;;;0.40;;
42118;SDS011;27783;42.782;23.274;2023-08-07T09:20:42;1.80;;;0.30;;
42118;SDS011;27783;42.782;23.274;2023-08-07T09:23:08;0.35;;;0.30;;
42118;SDS011;27783;42.782;23.274;2023-08-07T09:25:34;0.90;;;0.38;;
42118;SDS011;27783;42.782;23.274;2023-08-07T09:28:03;0.30;;;0.30;;
42118;SDS011;27783;42.782;23.274;2023-08-07T09:30:30;1.98;;;0.40;;
42118;SDS011;27783;42.782;23.274;2023-08-07T09:32:57;1.48;;;0.30;;
42118;SDS011;27783;42.782;23.274;2023-08-07T09:35:23;1.73;;;0.30;;
42118;SDS011;27783;42.782;23.274;2023-08-07T09:37:49;1.52;;;0.50;;
42118;SDS011;27783;42.782;23.274;2023-08-07T09:40:15;2.40;;;0.55;;
42118;SDS011;27783;42.782;23.274;2023-08-07T09:42:41;0.70;;;0.40;;
42118;SDS011;27783;42.782;23.274;2023-08-07T09:45:25;1.25;;;0.57;;
42118;SDS011;27783;42.782;23.274;2023-08-07T09:50:27;0.70;;;0.68;;
42118;SDS011;27783;42.782;23.274;2023-08-07T09:52:53;0.90;;;0.80;;
42118;SDS011;27783;42.782;23.274;2023-08-07T09:55:20;0.80;;;0.50;;
42118;SDS011;27783;42.782;23.274;2023-08-07T09:57:46;0.70;;;0.60;;
42118;SDS011;27783;42.782;23.274;2023-08-07T10:00:12;2.00;;;0.60;;
42118;SDS011;27783;42.782;23.274;2023-08-07T10:02:40;1.92;;;0.57;;
42118;SDS011;27783;42.782;23.274;2023-08-07T10:05:11;0.55;;;0.50;;
42118;SDS011;27783;42.782;23.274;2023-08-07T10:07:37;0.70;;;0.65;;
42118;SDS011;27783;42.782;23.274;2023-08-07T10:10:03;2.00;;;0.60;;
42118;SDS011;27783;42.782;23.274;2023-08-07T10:12:29;3.13;;;0.60;;
42118;SDS011;27783;42.782;23.274;2023-08-07T10:14:55;0.82;;;0.70;;
42118;SDS011;27783;42.782;23.274;2023-08-07T10:17:23;1.48;;;0.68;;
42118;SDS011;27783;42.782;23.274;2023-08-07T10:19:50;0.70;;;0.70;;
42118;SDS011;27783;42.782;23.274;2023-08-07T10:22:16;2.53;;;0.82;;
42118;SDS011;27783;42.782;23.274;2023-08-07T10:24:43;2.97;;;0.83;;
42118;SDS011;27783;42.782;23.274;2023-08-07T10:27:11;1.85;;;0.75;;
42118;SDS011;27783;42.782;23.274;2023-08-07T10:29:40;1.30;;;0.70;;
42118;SDS011;27783;42.782;23.274;2023-08-07T10:32:07;0.85;;;0.73;;
42118;SDS011;27783;42.782;23.274;2023-08-07T10:34:33;1.02;;;0.77;;
42118;SDS011;27783;42.782;23.274;2023-08-07T10:36:59;1.25;;;0.80;;
42118;SDS011;27783;42.782;23.274;2023-08-07T10:39:24;1.92;;;0.70;;
42118;SDS011;27783;42.782;23.274;2023-08-07T10:41:52;3.60;;;0.95;;
42118;SDS011;27783;42.782;23.274;2023-08-07T10:44:23;0.70;;;0.60;;
42118;SDS011;27783;42.782;23.274;2023-08-07T10:52:07;3.25;;;0.80;;
42118;SDS011;27783;42.782;23.274;2023-08-07T10:54:40;1.30;;;0.60;;
42118;SDS011;27783;42.782;23.274;2023-08-07T10:57:13;0.75;;;0.68;;
42118;SDS011;27783;42.782;23.274;2023-08-07T11:02:37;1.38;;;0.80;;
42118;SDS011;27783;42.782;23.274;2023-08-07T11:05:06;1.10;;;0.80;;
42118;SDS011;27783;42.782;23.274;2023-08-07T11:07:32;0.63;;;0.63;;
42118;SDS011;27783;42.782;23.274;2023-08-07T11:09:58;0.47;;;0.47;;
42118;SDS011;27783;42.782;23.274;2023-08-07T11:12:27;1.03;;;0.70;;
42118;SDS011;27783;42.782;23.274;2023-08-07T11:14:53;1.25;;;0.80;;
42118;SDS011;27783;42.782;23.274;2023-08-07T11:17:26;0.63;;;0.63;;
42118;SDS011;27783;42.782;23.274;2023-08-07T11:19:52;1.30;;;0.80;;
42118;SDS011;27783;42.782;23.274;2023-08-07T11:22:20;1.58;;;0.70;;
42118;SDS011;27783;42.782;23.274;2023-08-07T11:24:49;0.70;;;0.70;;
42118;SDS011;27783;42.782;23.274;2023-08-07T11:27:15;1.65;;;0.82;;
42118;SDS011;27783;42.782;23.274;2023-08-07T11:29:41;1.52;;;0.63;;
42118;SDS011;27783;42.782;23.274;2023-08-07T11:32:07;0.73;;;0.68;;
42118;SDS011;27783;42.782;23.274;2023-08-07T11:34:33;0.82;;;0.60;;
42118;SDS011;27783;42.782;23.274;2023-08-07T11:36:58;2.17;;;0.70;;
42118;SDS011;27783;42.782;23.274;2023-08-07T11:39:25;1.45;;;0.50;;
42118;SDS011;27783;42.782;23.274;2023-08-07T11:41:51;3.70;;;0.70;;
42118;SDS011;27783;42.782;23.274;2023-08-07T11:44:20;3.13;;;0.88;;
42118;SDS011;27783;42.782;23.274;2023-08-07T11:46:45;2.28;;;0.90;;
42118;SDS011;27783;42.782;23.274;2023-08-07T11:49:11;4.70;;;0.77;;
42118;SDS011;27783;42.782;23.274;2023-08-07T11:51:37;1.35;;;0.80;;
42118;SDS011;27783;42.782;23.274;2023-08-07T11:54:03;2.25;;;0.80;;
42118;SDS011;27783;42.782;23.274;2023-08-07T11:56:28;0.93;;;0.70;;
42118;SDS011;27783;42.782;23.274;2023-08-07T11:58:54;0.68;;;0.68;;
42118;SDS011;27783;42.782;23.274;2023-08-07T12:01:22;1.05;;;0.93;;
42118;SDS011;27783;42.782;23.274;2023-08-07T12:03:53;0.57;;;0.57;;
42118;SDS011;27783;42.782;23.274;2023-08-07T12:06:20;1.92;;;0.80;;
42118;SDS011;27783;42.782;23.274;2023-08-07T12:08:48;1.02;;;0.65;;
42118;SDS011;27783;42.782;23.274;2023-08-07T12:11:15;0.90;;;0.80;;
42118;SDS011;27783;42.782;23.274;2023-08-07T12:13:41;3.30;;;0.75;;
42118;SDS011;27783;42.782;23.274;2023-08-07T12:16:07;0.93;;;0.87;;
42118;SDS011;27783;42.782;23.274;2023-08-07T12:18:34;1.77;;;0.70;;
42118;SDS011;27783;42.782;23.274;2023-08-07T12:21:01;2.30;;;0.95;;
42118;SDS011;27783;42.782;23.274;2023-08-07T12:23:34;1.30;;;0.93;;
42118;SDS011;27783;42.782;23.274;2023-08-07T12:26:01;0.90;;;0.77;;
42118;SDS011;27783;42.782;23.274;2023-08-07T12:28:27;0.95;;;0.70;;
42118;SDS011;27783;42.782;23.274;2023-08-07T12:30:52;0.68;;;0.60;;
42118;SDS011;27783;42.782;23.274;2023-08-07T12:33:18;0.93;;;0.73;;
42118;SDS011;27783;42.782;23.274;2023-08-07T12:35:44;1.20;;;1.08;;
42118;SDS011;27783;42.782;23.274;2023-08-07T12:38:09;2.22;;;0.85;;
42118;SDS011;27783;42.782;23.274;2023-08-07T12:40:35;1.23;;;0.88;;
42118;SDS011;27783;42.782;23.274;2023-08-07T12:43:02;1.17;;;0.98;;
42118;SDS011;27783;42.782;23.274;2023-08-07T12:45:28;1.48;;;0.80;;
42118;SDS011;27783;42.782;23.274;2023-08-07T12:47:53;1.02;;;0.73;;
42118;SDS011;27783;42.782;23.274;2023-08-07T12:50:19;2.35;;;1.13;;
42118;SDS011;27783;42.782;23.274;2023-08-07T12:52:44;1.52;;;0.80;;
42118;SDS011;27783;42.782;23.274;2023-08-07T12:55:10;1.08;;;0.70;;
42118;SDS011;27783;42.782;23.274;2023-08-07T12:57:36;0.73;;;0.73;;
42118;SDS011;27783;42.782;23.274;2023-08-07T13:00:02;0.70;;;0.70;;
42118;SDS011;27783;42.782;23.274;2023-08-07T13:02:29;2.00;;;0.75;;
42118;SDS011;27783;42.782;23.274;2023-08-07T13:04:54;2.08;;;0.90;;
42118;SDS011;27783;42.782;23.274;2023-08-07T13:07:21;1.02;;;0.70;;
42118;SDS011;27783;42.782;23.274;2023-08-07T13:09:46;1.10;;;0.80;;
42118;SDS011;27783;42.782;23.274;2023-08-07T13:12:11;1.48;;;0.98;;
42118;SDS011;27783;42.782;23.274;2023-08-07T13:14:37;1.23;;;0.70;;
42118;SDS011;27783;42.782;23.274;2023-08-07T13:17:02;1.65;;;0.80;;
42118;SDS011;27783;42.782;23.274;2023-08-07T13:19:28;1.00;;;0.88;;
42118;SDS011;27783;42.782;23.274;2023-08-07T13:21:53;0.68;;;0.65;;
42118;SDS011;27783;42.782;23.274;2023-08-07T13:24:19;1.83;;;1.00;;
42118;SDS011;27783;42.782;23.274;2023-08-07T13:26:44;1.98;;;0.90;;
42118;SDS011;27783;42.782;23.274;2023-08-07T13:29:13;2.35;;;0.77;;
42118;SDS011;27783;42.782;23.274;2023-08-07T13:31:43;1.05;;;0.90;;
42118;SDS011;27783;42.782;23.274;2023-08-07T13:34:12;1.10;;;1.00;;
42118;SDS011;27783;42.782;23.274;2023-08-07T13:36:37;1.95;;;0.80;;
42118;SDS011;27783;42.782;23.274;2023-08-07T13:39:03;1.73;;;1.30;;
42118;SDS011;27783;42.782;23.274;2023-08-07T13:41:29;1.35;;;1.20;;
42118;SDS011;27783;42.782;23.274;2023-08-07T13:43:55;1.67;;;1.20;;
42118;SDS011;27783;42.782;23.274;2023-08-07T13:46:20;1.95;;;1.35;;
42118;SDS011;27783;42.782;23.274;2023-08-07T13:48:46;3.03;;;1.27;;
42118;SDS011;27783;42.782;23.274;2023-08-07T13:51:11;4.10;;;1.10;;
42118;SDS011;27783;42.782;23.274;2023-08-07T13:53:37;3.22;;;1.00;;
42118;SDS011;27783;42.782;23.274;2023-08-07T13:56:02;0.80;;;0.80;;
42118;SDS011;27783;42.782;23.274;2023-08-07T13:58:28;1.38;;;1.00;;
42118;SDS011;27783;42.782;23.274;2023-08-07T14:00:54;1.73;;;1.05;;
42118;SDS011;27783;42.782;23.274;2023-08-07T14:03:19;3.08;;;0.90;;
42118;SDS011;27783;42.782;23.274;2023-08-07T14:05:46;1.23;;;0.95;;
42118;SDS011;27783;42.782;23.274;2023-08-07T14:08:11;1.90;;;1.10;;
42118;SDS011;27783;42.782;23.274;2023-08-07T14:10:37;3.08;;;0.93;;
42118;SDS011;27783;42.782;23.274;2023-08-07T14:13:05;2.25;;;1.10;;
42118;SDS011;27783;42.782;23.274;2023-08-07T14:15:31;3.03;;;0.82;;
42118;SDS011;27783;42.782;23.274;2023-08-07T14:17:56;0.70;;;0.70;;
42118;SDS011;27783;42.782;23.274;2023-08-07T14:20:22;1.88;;;0.70;;
42118;SDS011;27783;42.782;23.274;2023-08-07T14:22:48;2.15;;;1.00;;
42118;SDS011;27783;42.782;23.274;2023-08-07T14:25:14;1.55;;;1.10;;
42118;SDS011;27783;42.782;23.274;2023-08-07T14:27:40;1.70;;;1.02;;
42118;SDS011;27783;42.782;23.274;2023-08-07T14:30:05;2.65;;;1.27;;
42118;SDS011;27783;42.782;23.274;2023-08-07T14:32:33;3.00;;;1.10;;
42118;SDS011;27783;42.782;23.274;2023-08-07T14:34:58;1.13;;;0.82;;
42118;SDS011;27783;42.782;23.274;2023-08-07T14:37:23;1.27;;;0.90;;
42118;SDS011;27783;42.782;23.274;2023-08-07T14:39:49;1.13;;;0.88;;
42118;SDS011;27783;42.782;23.274;2023-08-07T14:42:14;0.77;;;0.77;;
42118;SDS011;27783;42.782;23.274;2023-08-07T14:44:41;1.80;;;0.95;;